sensor_id;sensor_type;location;lat;lon;timestamp;P1;durP1;ratioP1;P2;durP2;ratioP2
12826;SDS011;66927;48.812;9.118;2023-03-16T00:00:34;9.67;;;8.50;;
12826;SDS011;66927;48.812;9.118;2023-03-16T00:03:00;11.17;;;8.37;;
12826;SDS011;66927;48.812;9.118;2023-03-16T00:05:26;13.17;;;8.57;;
12826;SDS011;66927;48.812;9.118;2023-03-16T00:07:51;12.33;;;10.03;;
12826;SDS011;66927;48.812;9.118;2023-03-16T00:10:17;13.23;;;9.60;;
12826;SDS011;66927;48.812;9.118;2023-03-16T00:12:43;10.20;;;9.07;;
12826;SDS011;66927;48.812;9.118;2023-03-16T00:15:09;11.90;;;8.77;;
12826;SDS011;66927;48.812;9.118;2023-03-16T00:17:36;8.80;;;7.90;;
12826;SDS011;66927;48.812;9.118;2023-03-16T00:20:02;9.33;;;8.10;;
12826;SDS011;66927;48.812;9.118;2023-03-16T00:22:31;9.83;;;8.70;;
12826;SDS011;66927;48.812;9.118;2023-03-16T00:24:57;10.23;;;9.17;;
12826;SDS011;66927;48.812;9.118;2023-03-16T00:27:24;9.97;;;8.97;;
12826;SDS011;66927;48.812;9.118;2023-03-16T00:29:51;11.53;;;8.70;;
12826;SDS011;66927;48.812;9.118;2023-03-16T00:32:24;11.70;;;8.90;;
12826;SDS011;66927;48.812;9.118;2023-03-16T00:34:51;10.10;;;9.00;;
12826;SDS011;66927;48.812;9.118;2023-03-16T00:37:18;10.87;;;9.50;;
12826;SDS011;66927;48.812;9.118;2023-03-16T00:39:45;10.87;;;9.77;;
12826;SDS011;66927;48.812;9.118;2023-03-16T00:42:11;11.50;;;10.27;;
12826;SDS011;66927;48.812;9.118;2023-03-16T00:44:39;11.73;;;10.53;;
12826;SDS011;66927;48.812;9.118;2023-03-16T00:47:08;13.37;;;10.83;;
12826;SDS011;66927;48.812;9.118;2023-03-16T00:49:38;12.63;;;10.60;;
12826;SDS011;66927;48.812;9.118;2023-03-16T00:52:07;12.67;;;10.67;;
12826;SDS011;66927;48.812;9.118;2023-03-16T00:54:38;11.97;;;10.77;;
12826;SDS011;66927;48.812;9.118;2023-03-16T00:57:07;12.20;;;10.97;;
12826;SDS011;66927;48.812;9.118;2023-03-16T00:59:33;12.60;;;11.27;;
12826;SDS011;66927;48.812;9.118;2023-03-16T01:02:02;13.10;;;11.67;;
12826;SDS011;66927;48.812;9.118;2023-03-16T01:04:29;12.60;;;11.27;;
12826;SDS011;66927;48.812;9.118;2023-03-16T01:06:56;13.93;;;11.27;;
12826;SDS011;66927;48.812;9.118;2023-03-16T01:09:22;12.30;;;11.03;;
12826;SDS011;66927;48.812;9.118;2023-03-16T01:11:47;12.40;;;11.10;;
12826;SDS011;66927;48.812;9.118;2023-03-16T01:14:17;13.03;;;11.27;;
12826;SDS011;66927;48.812;9.118;2023-03-16T01:16:43;13.20;;;11.53;;
12826;SDS011;66927;48.812;9.118;2023-03-16T01:19:10;13.37;;;11.43;;
12826;SDS011;66927;48.812;9.118;2023-03-16T01:21:37;13.07;;;10.77;;
12826;SDS011;66927;48.812;9.118;2023-03-16T01:24:03;12.97;;;11.07;;
12826;SDS011;66927;48.812;9.118;2023-03-16T01:26:29;16.77;;;11.67;;
12826;SDS011;66927;48.812;9.118;2023-03-16T01:28:55;12.97;;;11.47;;
12826;SDS011;66927;48.812;9.118;2023-03-16T01:31:21;17.10;;;12.37;;
12826;SDS011;66927;48.812;9.118;2023-03-16T01:33:46;13.23;;;11.57;;
12826;SDS011;66927;48.812;9.118;2023-03-16T01:36:17;15.97;;;12.10;;
12826;SDS011;66927;48.812;9.118;2023-03-16T01:38:43;11.73;;;10.47;;
12826;SDS011;66927;48.812;9.118;2023-03-16T01:41:12;12.87;;;11.47;;
12826;SDS011;66927;48.812;9.118;2023-03-16T01:43:38;14.60;;;11.63;;
12826;SDS011;66927;48.812;9.118;2023-03-16T01:51:24;13.63;;;11.90;;
12826;SDS011;66927;48.812;9.118;2023-03-16T01:53:59;12.97;;;11.67;;
12826;SDS011;66927;48.812;9.118;2023-03-16T01:56:53;14.03;;;12.13;;
12826;SDS011;66927;48.812;9.118;2023-03-16T01:59:22;14.70;;;12.27;;
12826;SDS011;66927;48.812;9.118;2023-03-16T02:01:54;15.30;;;12.47;;
12826;SDS011;66927;48.812;9.118;2023-03-16T02:07:06;14.10;;;12.60;;
12826;SDS011;66927;48.812;9.118;2023-03-16T02:09:34;16.23;;;13.10;;
12826;SDS011;66927;48.812;9.118;2023-03-16T02:12:03;13.80;;;12.43;;
12826;SDS011;66927;48.812;9.118;2023-03-16T02:14:29;14.00;;;12.50;;
12826;SDS011;66927;48.812;9.118;2023-03-16T02:16:55;13.03;;;11.63;;
12826;SDS011;66927;48.812;9.118;2023-03-16T02:22:25;12.33;;;11.07;;
12826;SDS011;66927;48.812;9.118;2023-03-16T02:24:51;12.80;;;11.53;;
12826;SDS011;66927;48.812;9.118;2023-03-16T02:27:35;13.00;;;11.13;;
12826;SDS011;66927;48.812;9.118;2023-03-16T02:30:14;13.87;;;11.80;;
12826;SDS011;66927;48.812;9.118;2023-03-16T02:32:41;12.67;;;11.37;;
12826;SDS011;66927;48.812;9.118;2023-03-16T02:35:08;16.10;;;11.83;;
12826;SDS011;66927;48.812;9.118;2023-03-16T02:37:36;12.17;;;10.97;;
12826;SDS011;66927;48.812;9.118;2023-03-16T02:40:15;12.93;;;11.57;;
12826;SDS011;66927;48.812;9.118;2023-03-16T02:42:48;13.40;;;11.37;;
12826;SDS011;66927;48.812;9.118;2023-03-16T02:45:24;12.37;;;11.10;;
12826;SDS011;66927;48.812;9.118;2023-03-16T02:47:52;14.87;;;11.80;;
12826;SDS011;66927;48.812;9.118;2023-03-16T02:50:19;13.73;;;11.87;;
12826;SDS011;66927;48.812;9.118;2023-03-16T02:52:45;13.43;;;11.90;;
12826;SDS011;66927;48.812;9.118;2023-03-16T02:55:12;13.00;;;11.57;;
12826;SDS011;66927;48.812;9.118;2023-03-16T02:57:38;13.43;;;11.60;;
12826;SDS011;66927;48.812;9.118;2023-03-16T03:00:04;12.03;;;10.73;;
12826;SDS011;66927;48.812;9.118;2023-03-16T03:02:36;13.83;;;11.30;;
12826;SDS011;66927;48.812;9.118;2023-03-16T03:05:01;12.23;;;10.93;;
12826;SDS011;66927;48.812;9.118;2023-03-16T03:07:27;12.10;;;10.90;;
12826;SDS011;66927;48.812;9.118;2023-03-16T03:09:56;12.10;;;10.80;;
12826;SDS011;66927;48.812;9.118;2023-03-16T03:12:22;13.23;;;10.90;;
12826;SDS011;66927;48.812;9.118;2023-03-16T03:14:47;12.77;;;10.83;;
12826;SDS011;66927;48.812;9.118;2023-03-16T03:17:13;12.57;;;10.93;;
12826;SDS011;66927;48.812;9.118;2023-03-16T03:19:38;12.03;;;10.63;;
12826;SDS011;66927;48.812;9.118;2023-03-16T03:22:04;11.80;;;10.60;;
12826;SDS011;66927;48.812;9.118;2023-03-16T03:24:33;12.97;;;10.77;;
12826;SDS011;66927;48.812;9.118;2023-03-16T03:26:59;13.70;;;12.27;;
12826;SDS011;66927;48.812;9.118;2023-03-16T03:29:29;13.10;;;11.67;;
12826;SDS011;66927;48.812;9.118;2023-03-16T03:32:02;13.00;;;11.50;;
12826;SDS011;66927;48.812;9.118;2023-03-16T03:34:29;12.33;;;11.03;;
12826;SDS011;66927;48.812;9.118;2023-03-16T03:36:55;16.40;;;12.50;;
12826;SDS011;66927;48.812;9.118;2023-03-16T03:39:21;15.13;;;11.80;;
12826;SDS011;66927;48.812;9.118;2023-03-16T03:41:47;12.70;;;11.40;;
12826;SDS011;66927;48.812;9.118;2023-03-16T03:44:13;15.30;;;11.67;;
12826;SDS011;66927;48.812;9.118;2023-03-16T03:46:38;14.07;;;12.50;;
12826;SDS011;66927;48.812;9.118;2023-03-16T03:49:04;16.13;;;12.03;;
12826;SDS011;66927;48.812;9.118;2023-03-16T03:51:30;14.10;;;11.57;;
12826;SDS011;66927;48.812;9.118;2023-03-16T03:53:57;14.57;;;12.17;;
12826;SDS011;66927;48.812;9.118;2023-03-16T03:56:23;13.43;;;12.00;;
12826;SDS011;66927;48.812;9.118;2023-03-16T03:58:49;13.80;;;12.40;;
12826;SDS011;66927;48.812;9.118;2023-03-16T04:01:15;13.80;;;12.23;;
12826;SDS011;66927;48.812;9.118;2023-03-16T04:03:41;13.27;;;11.77;;
12826;SDS011;66927;48.812;9.118;2023-03-16T04:06:07;15.20;;;12.87;;
12826;SDS011;66927;48.812;9.118;2023-03-16T04:08:33;17.10;;;12.97;;
12826;SDS011;66927;48.812;9.118;2023-03-16T04:10:59;13.77;;;12.23;;
12826;SDS011;66927;48.812;9.118;2023-03-16T04:13:25;14.00;;;12.57;;
12826;SDS011;66927;48.812;9.118;2023-03-16T04:15:56;14.17;;;12.60;;
12826;SDS011;66927;48.812;9.118;2023-03-16T04:18:24;16.37;;;12.50;;
12826;SDS011;66927;48.812;9.118;2023-03-16T04:20:49;14.43;;;12.20;;
12826;SDS011;66927;48.812;9.118;2023-03-16T04:23:17;14.03;;;12.17;;
12826;SDS011;66927;48.812;9.118;2023-03-16T04:25:43;31.10;;;21.67;;
12826;SDS011;66927;48.812;9.118;2023-03-16T04:28:09;19.27;;;14.90;;
12826;SDS011;66927;48.812;9.118;2023-03-16T04:30:35;16.43;;;12.83;;
12826;SDS011;66927;48.812;9.118;2023-03-16T04:33:00;16.33;;;13.23;;
12826;SDS011;66927;48.812;9.118;2023-03-16T04:35:26;15.87;;;13.20;;
12826;SDS011;66927;48.812;9.118;2023-03-16T04:37:52;16.33;;;13.73;;
12826;SDS011;66927;48.812;9.118;2023-03-16T04:40:18;15.83;;;13.40;;
12826;SDS011;66927;48.812;9.118;2023-03-16T04:42:44;15.37;;;13.40;;
12826;SDS011;66927;48.812;9.118;2023-03-16T04:45:10;13.90;;;12.40;;
12826;SDS011;66927;48.812;9.118;2023-03-16T04:47:37;14.30;;;12.80;;
12826;SDS011;66927;48.812;9.118;2023-03-16T04:50:03;14.20;;;12.60;;
12826;SDS011;66927;48.812;9.118;2023-03-16T04:52:30;15.40;;;13.37;;
12826;SDS011;66927;48.812;9.118;2023-03-16T04:54:56;14.97;;;12.30;;
12826;SDS011;66927;48.812;9.118;2023-03-16T04:57:22;16.13;;;13.57;;
12826;SDS011;66927;48.812;9.118;2023-03-16T04:59:47;16.83;;;13.17;;
12826;SDS011;66927;48.812;9.118;2023-03-16T05:02:13;17.17;;;14.00;;
12826;SDS011;66927;48.812;9.118;2023-03-16T05:04:39;15.87;;;13.70;;
12826;SDS011;66927;48.812;9.118;2023-03-16T05:07:04;15.40;;;13.23;;
12826;SDS011;66927;48.812;9.118;2023-03-16T05:09:30;19.07;;;14.30;;
12826;SDS011;66927;48.812;9.118;2023-03-16T05:11:56;17.60;;;13.73;;
12826;SDS011;66927;48.812;9.118;2023-03-16T05:14:23;15.10;;;13.40;;
12826;SDS011;66927;48.812;9.118;2023-03-16T05:16:49;14.50;;;13.00;;
12826;SDS011;66927;48.812;9.118;2023-03-16T05:19:16;16.20;;;14.47;;
12826;SDS011;66927;48.812;9.118;2023-03-16T05:21:42;16.27;;;13.77;;
12826;SDS011;66927;48.812;9.118;2023-03-16T05:24:09;15.87;;;14.13;;
12826;SDS011;66927;48.812;9.118;2023-03-16T05:26:36;15.43;;;13.17;;
12826;SDS011;66927;48.812;9.118;2023-03-16T05:29:02;16.43;;;14.53;;
12826;SDS011;66927;48.812;9.118;2023-03-16T05:31:28;16.53;;;14.50;;
12826;SDS011;66927;48.812;9.118;2023-03-16T05:33:57;15.73;;;14.03;;
12826;SDS011;66927;48.812;9.118;2023-03-16T05:36:23;17.90;;;14.40;;
12826;SDS011;66927;48.812;9.118;2023-03-16T05:38:49;17.63;;;14.40;;
12826;SDS011;66927;48.812;9.118;2023-03-16T05:41:16;16.07;;;13.70;;
12826;SDS011;66927;48.812;9.118;2023-03-16T05:43:42;15.60;;;13.27;;
12826;SDS011;66927;48.812;9.118;2023-03-16T05:46:09;16.93;;;14.90;;
12826;SDS011;66927;48.812;9.118;2023-03-16T05:48:34;17.33;;;15.40;;
12826;SDS011;66927;48.812;9.118;2023-03-16T05:51:00;16.93;;;15.13;;
12826;SDS011;66927;48.812;9.118;2023-03-16T05:53:29;17.90;;;14.80;;
12826;SDS011;66927;48.812;9.118;2023-03-16T05:55:55;16.27;;;14.17;;
12826;SDS011;66927;48.812;9.118;2023-03-16T05:58:21;17.07;;;14.43;;
12826;SDS011;66927;48.812;9.118;2023-03-16T06:00:47;16.40;;;14.47;;
12826;SDS011;66927;48.812;9.118;2023-03-16T06:03:14;17.17;;;14.63;;
12826;SDS011;66927;48.812;9.118;2023-03-16T06:05:40;15.73;;;13.60;;
12826;SDS011;66927;48.812;9.118;2023-03-16T06:08:06;17.67;;;14.77;;
12826;SDS011;66927;48.812;9.118;2023-03-16T06:10:33;15.17;;;12.57;;
12826;SDS011;66927;48.812;9.118;2023-03-16T06:12:59;15.43;;;12.70;;
12826;SDS011;66927;48.812;9.118;2023-03-16T06:15:24;16.83;;;14.20;;
12826;SDS011;66927;48.812;9.118;2023-03-16T06:17:50;18.00;;;15.00;;
12826;SDS011;66927;48.812;9.118;2023-03-16T06:20:16;16.97;;;14.17;;
12826;SDS011;66927;48.812;9.118;2023-03-16T06:22:42;16.57;;;14.23;;
12826;SDS011;66927;48.812;9.118;2023-03-16T06:25:09;16.17;;;14.43;;
12826;SDS011;66927;48.812;9.118;2023-03-16T06:27:36;20.33;;;16.10;;
12826;SDS011;66927;48.812;9.118;2023-03-16T06:30:02;18.90;;;14.90;;
12826;SDS011;66927;48.812;9.118;2023-03-16T06:32:29;18.40;;;15.03;;
12826;SDS011;66927;48.812;9.118;2023-03-16T06:34:55;22.43;;;19.70;;
12826;SDS011;66927;48.812;9.118;2023-03-16T06:37:23;20.93;;;18.00;;
12826;SDS011;66927;48.812;9.118;2023-03-16T06:39:49;22.47;;;17.43;;
12826;SDS011;66927;48.812;9.118;2023-03-16T06:42:14;20.60;;;16.17;;
12826;SDS011;66927;48.812;9.118;2023-03-16T06:44:40;22.67;;;17.77;;
12826;SDS011;66927;48.812;9.118;2023-03-16T06:47:06;18.77;;;16.20;;
12826;SDS011;66927;48.812;9.118;2023-03-16T06:49:32;21.67;;;17.23;;
12826;SDS011;66927;48.812;9.118;2023-03-16T06:51:58;20.53;;;17.20;;
12826;SDS011;66927;48.812;9.118;2023-03-16T06:54:24;19.37;;;16.87;;
12826;SDS011;66927;48.812;9.118;2023-03-16T06:56:50;27.57;;;21.77;;
12826;SDS011;66927;48.812;9.118;2023-03-16T06:59:16;27.40;;;22.60;;
12826;SDS011;66927;48.812;9.118;2023-03-16T07:01:42;20.93;;;18.23;;
12826;SDS011;66927;48.812;9.118;2023-03-16T07:04:09;18.83;;;16.37;;
12826;SDS011;66927;48.812;9.118;2023-03-16T07:06:34;18.37;;;15.40;;
12826;SDS011;66927;48.812;9.118;2023-03-16T07:09:00;19.73;;;15.67;;
12826;SDS011;66927;48.812;9.118;2023-03-16T07:11:26;21.30;;;16.77;;
12826;SDS011;66927;48.812;9.118;2023-03-16T07:13:51;17.70;;;15.47;;
12826;SDS011;66927;48.812;9.118;2023-03-16T07:16:17;18.93;;;15.40;;
12826;SDS011;66927;48.812;9.118;2023-03-16T07:18:43;19.50;;;14.97;;
12826;SDS011;66927;48.812;9.118;2023-03-16T07:21:09;19.33;;;16.40;;
12826;SDS011;66927;48.812;9.118;2023-03-16T07:23:35;17.40;;;15.00;;
12826;SDS011;66927;48.812;9.118;2023-03-16T07:26:00;19.70;;;16.47;;
12826;SDS011;66927;48.812;9.118;2023-03-16T07:28:26;18.63;;;15.03;;
12826;SDS011;66927;48.812;9.118;2023-03-16T07:30:52;18.77;;;14.90;;
12826;SDS011;66927;48.812;9.118;2023-03-16T07:33:17;17.67;;;13.53;;
12826;SDS011;66927;48.812;9.118;2023-03-16T07:35:44;19.43;;;14.23;;
12826;SDS011;66927;48.812;9.118;2023-03-16T07:38:10;16.30;;;14.53;;
12826;SDS011;66927;48.812;9.118;2023-03-16T07:40:38;15.13;;;13.57;;
12826;SDS011;66927;48.812;9.118;2023-03-16T07:43:04;16.07;;;13.43;;
12826;SDS011;66927;48.812;9.118;2023-03-16T07:45:30;16.73;;;12.83;;
12826;SDS011;66927;48.812;9.118;2023-03-16T07:47:55;15.37;;;12.47;;
12826;SDS011;66927;48.812;9.118;2023-03-16T07:50:21;14.67;;;12.10;;
12826;SDS011;66927;48.812;9.118;2023-03-16T07:52:47;14.10;;;12.60;;
12826;SDS011;66927;48.812;9.118;2023-03-16T07:55:13;14.37;;;12.93;;
12826;SDS011;66927;48.812;9.118;2023-03-16T07:57:39;14.30;;;11.87;;
12826;SDS011;66927;48.812;9.118;2023-03-16T08:00:06;11.53;;;10.40;;
12826;SDS011;66927;48.812;9.118;2023-03-16T08:02:33;13.57;;;12.10;;
12826;SDS011;66927;48.812;9.118;2023-03-16T08:04:59;13.33;;;10.70;;
12826;SDS011;66927;48.812;9.118;2023-03-16T08:07:24;12.37;;;11.07;;
12826;SDS011;66927;48.812;9.118;2023-03-16T08:09:50;12.80;;;10.57;;
12826;SDS011;66927;48.812;9.118;2023-03-16T08:12:16;12.53;;;10.37;;
12826;SDS011;66927;48.812;9.118;2023-03-16T08:14:42;12.20;;;10.40;;
12826;SDS011;66927;48.812;9.118;2023-03-16T08:17:09;12.13;;;10.83;;
12826;SDS011;66927;48.812;9.118;2023-03-16T08:19:36;10.67;;;9.07;;
12826;SDS011;66927;48.812;9.118;2023-03-16T08:22:02;15.70;;;9.87;;
12826;SDS011;66927;48.812;9.118;2023-03-16T08:24:29;9.93;;;8.90;;
12826;SDS011;66927;48.812;9.118;2023-03-16T08:26:56;9.77;;;8.67;;
12826;SDS011;66927;48.812;9.118;2023-03-16T08:29:23;10.17;;;9.17;;
12826;SDS011;66927;48.812;9.118;2023-03-16T08:31:49;9.13;;;8.17;;
12826;SDS011;66927;48.812;9.118;2023-03-16T08:34:17;10.50;;;8.83;;
12826;SDS011;66927;48.812;9.118;2023-03-16T08:36:43;11.53;;;9.07;;
12826;SDS011;66927;48.812;9.118;2023-03-16T08:39:09;12.27;;;9.23;;
12826;SDS011;66927;48.812;9.118;2023-03-16T08:41:35;11.57;;;8.37;;
12826;SDS011;66927;48.812;9.118;2023-03-16T08:44:00;10.13;;;8.13;;
12826;SDS011;66927;48.812;9.118;2023-03-16T08:46:27;8.73;;;7.27;;
12826;SDS011;66927;48.812;9.118;2023-03-16T08:48:53;11.17;;;7.97;;
12826;SDS011;66927;48.812;9.118;2023-03-16T08:51:19;7.57;;;6.87;;
12826;SDS011;66927;48.812;9.118;2023-03-16T08:53:45;11.07;;;7.13;;
12826;SDS011;66927;48.812;9.118;2023-03-16T08:56:12;10.23;;;6.47;;
12826;SDS011;66927;48.812;9.118;2023-03-16T08:58:39;10.00;;;6.33;;
12826;SDS011;66927;48.812;9.118;2023-03-16T09:01:10;8.03;;;6.63;;
12826;SDS011;66927;48.812;9.118;2023-03-16T09:03:37;8.13;;;6.43;;
12826;SDS011;66927;48.812;9.118;2023-03-16T09:06:05;7.50;;;5.93;;
12826;SDS011;66927;48.812;9.118;2023-03-16T09:08:32;7.77;;;6.63;;
12826;SDS011;66927;48.812;9.118;2023-03-16T09:11:02;7.33;;;6.63;;
12826;SDS011;66927;48.812;9.118;2023-03-16T09:13:29;9.83;;;6.53;;
12826;SDS011;66927;48.812;9.118;2023-03-16T09:15:56;8.13;;;5.80;;
12826;SDS011;66927;48.812;9.118;2023-03-16T09:18:22;7.13;;;5.57;;
12826;SDS011;66927;48.812;9.118;2023-03-16T09:20:50;8.07;;;5.93;;
12826;SDS011;66927;48.812;9.118;2023-03-16T09:23:16;6.17;;;5.07;;
12826;SDS011;66927;48.812;9.118;2023-03-16T09:25:43;6.50;;;5.20;;
12826;SDS011;66927;48.812;9.118;2023-03-16T09:28:09;6.00;;;5.17;;
12826;SDS011;66927;48.812;9.118;2023-03-16T09:30:35;6.83;;;4.73;;
12826;SDS011;66927;48.812;9.118;2023-03-16T09:33:01;7.03;;;5.00;;
12826;SDS011;66927;48.812;9.118;2023-03-16T09:35:28;8.53;;;4.87;;
12826;SDS011;66927;48.812;9.118;2023-03-16T09:37:54;5.90;;;5.13;;
12826;SDS011;66927;48.812;9.118;2023-03-16T09:40:25;5.30;;;4.73;;
12826;SDS011;66927;48.812;9.118;2023-03-16T09:48:29;6.03;;;3.90;;
12826;SDS011;66927;48.812;9.118;2023-03-16T09:50:59;4.57;;;3.90;;
12826;SDS011;66927;48.812;9.118;2023-03-16T09:53:29;4.17;;;3.77;;
12826;SDS011;66927;48.812;9.118;2023-03-16T09:58:28;6.63;;;3.80;;
12826;SDS011;66927;48.812;9.118;2023-03-16T10:06:37;7.37;;;4.30;;
12826;SDS011;66927;48.812;9.118;2023-03-16T10:09:35;6.97;;;4.10;;
12826;SDS011;66927;48.812;9.118;2023-03-16T10:12:07;4.10;;;3.70;;
12826;SDS011;66927;48.812;9.118;2023-03-16T10:14:40;5.67;;;4.30;;
12826;SDS011;66927;48.812;9.118;2023-03-16T10:17:14;5.53;;;4.10;;
12826;SDS011;66927;48.812;9.118;2023-03-16T10:20:05;9.07;;;4.10;;
12826;SDS011;66927;48.812;9.118;2023-03-16T10:22:38;4.50;;;4.10;;
12826;SDS011;66927;48.812;9.118;2023-03-16T10:25:09;3.77;;;3.30;;
12826;SDS011;66927;48.812;9.118;2023-03-16T10:27:41;5.07;;;3.70;;
12826;SDS011;66927;48.812;9.118;2023-03-16T10:32:42;5.27;;;3.70;;
12826;SDS011;66927;48.812;9.118;2023-03-16T10:38:24;4.90;;;3.60;;
12826;SDS011;66927;48.812;9.118;2023-03-16T10:40:52;5.50;;;4.10;;
12826;SDS011;66927;48.812;9.118;2023-03-16T10:43:18;6.37;;;3.83;;
12826;SDS011;66927;48.812;9.118;2023-03-16T10:45:44;5.97;;;4.30;;
12826;SDS011;66927;48.812;9.118;2023-03-16T10:48:18;5.57;;;3.90;;
12826;SDS011;66927;48.812;9.118;2023-03-16T10:50:49;5.70;;;3.80;;
12826;SDS011;66927;48.812;9.118;2023-03-16T10:55:55;6.03;;;4.33;;
12826;SDS011;66927;48.812;9.118;2023-03-16T10:58:28;4.97;;;3.13;;
12826;SDS011;66927;48.812;9.118;2023-03-16T11:00:56;4.47;;;3.90;;
12826;SDS011;66927;48.812;9.118;2023-03-16T11:05:56;5.63;;;4.00;;
12826;SDS011;66927;48.812;9.118;2023-03-16T11:08:25;5.90;;;5.30;;
12826;SDS011;66927;48.812;9.118;2023-03-16T11:10:55;4.67;;;3.70;;
12826;SDS011;66927;48.812;9.118;2023-03-16T11:13:34;5.20;;;3.60;;
12826;SDS011;66927;48.812;9.118;2023-03-16T11:18:55;4.43;;;3.10;;
12826;SDS011;66927;48.812;9.118;2023-03-16T11:24:21;3.40;;;3.00;;
12826;SDS011;66927;48.812;9.118;2023-03-16T11:26:57;4.87;;;2.93;;
12826;SDS011;66927;48.812;9.118;2023-03-16T11:29:31;3.63;;;3.30;;
12826;SDS011;66927;48.812;9.118;2023-03-16T11:32:00;3.63;;;3.20;;
12826;SDS011;66927;48.812;9.118;2023-03-16T11:34:30;4.70;;;3.20;;
12826;SDS011;66927;48.812;9.118;2023-03-16T11:45:33;5.03;;;3.13;;
12826;SDS011;66927;48.812;9.118;2023-03-16T11:53:36;5.47;;;2.95;;
12826;SDS011;66927;48.812;9.118;2023-03-16T12:04:10;2.50;;;2.30;;
12826;SDS011;66927;48.812;9.118;2023-03-16T12:15:22;2.67;;;2.47;;
12826;SDS011;66927;48.812;9.118;2023-03-16T12:17:59;3.03;;;2.83;;
12826;SDS011;66927;48.812;9.118;2023-03-16T12:20:45;2.80;;;2.60;;
12826;SDS011;66927;48.812;9.118;2023-03-16T12:23:19;5.55;;;2.70;;
12826;SDS011;66927;48.812;9.118;2023-03-16T12:25:50;5.95;;;2.50;;
12826;SDS011;66927;48.812;9.118;2023-03-16T12:28:24;3.13;;;2.35;;
12826;SDS011;66927;48.812;9.118;2023-03-16T12:39:01;5.75;;;3.08;;
12826;SDS011;66927;48.812;9.118;2023-03-16T12:44:21;3.13;;;2.83;;
12826;SDS011;66927;48.812;9.118;2023-03-16T12:49:40;2.80;;;2.60;;
12826;SDS011;66927;48.812;9.118;2023-03-16T12:52:08;2.97;;;2.67;;
12826;SDS011;66927;48.812;9.118;2023-03-16T12:54:47;5.75;;;2.72;;
12826;SDS011;66927;48.812;9.118;2023-03-16T12:57:18;3.90;;;3.00;;
12826;SDS011;66927;48.812;9.118;2023-03-16T12:59:47;2.63;;;2.42;;
12826;SDS011;66927;48.812;9.118;2023-03-16T13:02:33;3.17;;;2.55;;
12826;SDS011;66927;48.812;9.118;2023-03-16T13:05:08;3.40;;;2.33;;
12826;SDS011;66927;48.812;9.118;2023-03-16T13:07:36;3.67;;;2.35;;
12826;SDS011;66927;48.812;9.118;2023-03-16T13:10:15;3.78;;;2.58;;
12826;SDS011;66927;48.812;9.118;2023-03-16T13:12:45;2.88;;;2.63;;
12826;SDS011;66927;48.812;9.118;2023-03-16T13:17:48;4.15;;;2.92;;
12826;SDS011;66927;48.812;9.118;2023-03-16T13:20:23;3.63;;;2.97;;
12826;SDS011;66927;48.812;9.118;2023-03-16T13:25:43;4.70;;;2.95;;
12826;SDS011;66927;48.812;9.118;2023-03-16T13:28:49;3.00;;;2.80;;
12826;SDS011;66927;48.812;9.118;2023-03-16T13:34:02;3.65;;;3.05;;
12826;SDS011;66927;48.812;9.118;2023-03-16T13:36:30;4.20;;;3.15;;
12826;SDS011;66927;48.812;9.118;2023-03-16T13:39:02;5.32;;;3.08;;
12826;SDS011;66927;48.812;9.118;2023-03-16T13:41:28;10.13;;;3.37;;
12826;SDS011;66927;48.812;9.118;2023-03-16T13:43:54;4.00;;;3.20;;
12826;SDS011;66927;48.812;9.118;2023-03-16T13:46:21;3.97;;;3.05;;
12826;SDS011;66927;48.812;9.118;2023-03-16T13:48:53;3.90;;;3.27;;
12826;SDS011;66927;48.812;9.118;2023-03-16T13:51:24;3.03;;;2.73;;
12826;SDS011;66927;48.812;9.118;2023-03-16T13:53:51;4.83;;;3.43;;
12826;SDS011;66927;48.812;9.118;2023-03-16T13:56:20;4.10;;;3.28;;
12826;SDS011;66927;48.812;9.118;2023-03-16T13:58:50;4.30;;;3.47;;
12826;SDS011;66927;48.812;9.118;2023-03-16T14:03:57;4.70;;;3.20;;
12826;SDS011;66927;48.812;9.118;2023-03-16T14:06:34;3.80;;;3.20;;
12826;SDS011;66927;48.812;9.118;2023-03-16T14:09:01;3.63;;;3.10;;
12826;SDS011;66927;48.812;9.118;2023-03-16T14:11:29;3.63;;;2.95;;
12826;SDS011;66927;48.812;9.118;2023-03-16T14:13:56;3.28;;;2.78;;
12826;SDS011;66927;48.812;9.118;2023-03-16T14:16:23;3.72;;;2.88;;
12826;SDS011;66927;48.812;9.118;2023-03-16T14:21:28;3.00;;;2.70;;
12826;SDS011;66927;48.812;9.118;2023-03-16T14:23:56;4.05;;;3.42;;
12826;SDS011;66927;48.812;9.118;2023-03-16T14:26:24;15.32;;;3.60;;
12826;SDS011;66927;48.812;9.118;2023-03-16T14:28:55;4.95;;;2.80;;
12826;SDS011;66927;48.812;9.118;2023-03-16T14:31:36;3.10;;;2.78;;
12826;SDS011;66927;48.812;9.118;2023-03-16T14:34:05;4.30;;;2.78;;
12826;SDS011;66927;48.812;9.118;2023-03-16T14:36:47;3.30;;;3.00;;
12826;SDS011;66927;48.812;9.118;2023-03-16T14:39:14;3.97;;;3.17;;
12826;SDS011;66927;48.812;9.118;2023-03-16T14:41:43;3.47;;;3.17;;
12826;SDS011;66927;48.812;9.118;2023-03-16T14:44:26;4.63;;;3.10;;
12826;SDS011;66927;48.812;9.118;2023-03-16T14:46:56;3.65;;;2.90;;
12826;SDS011;66927;48.812;9.118;2023-03-16T14:51:56;3.97;;;2.35;;
12826;SDS011;66927;48.812;9.118;2023-03-16T14:54:28;6.05;;;2.88;;
12826;SDS011;66927;48.812;9.118;2023-03-16T14:57:01;12.77;;;3.22;;
12826;SDS011;66927;48.812;9.118;2023-03-16T14:59:30;4.23;;;2.80;;
12826;SDS011;66927;48.812;9.118;2023-03-16T15:01:58;4.13;;;3.00;;
12826;SDS011;66927;48.812;9.118;2023-03-16T15:04:29;4.20;;;2.67;;
12826;SDS011;66927;48.812;9.118;2023-03-16T15:07:04;7.27;;;2.90;;
12826;SDS011;66927;48.812;9.118;2023-03-16T15:09:48;3.30;;;2.70;;
12826;SDS011;66927;48.812;9.118;2023-03-16T15:12:16;9.83;;;3.10;;
12826;SDS011;66927;48.812;9.118;2023-03-16T15:14:43;3.27;;;2.27;;
12826;SDS011;66927;48.812;9.118;2023-03-16T15:17:29;3.20;;;2.60;;
12826;SDS011;66927;48.812;9.118;2023-03-16T15:19:56;3.43;;;2.07;;
12826;SDS011;66927;48.812;9.118;2023-03-16T15:22:32;2.57;;;1.93;;
12826;SDS011;66927;48.812;9.118;2023-03-16T15:25:47;3.40;;;1.90;;
12826;SDS011;66927;48.812;9.118;2023-03-16T15:27:50;3.70;;;1.90;;
12826;SDS011;66927;48.812;9.118;2023-03-16T15:30:24;3.23;;;2.30;;
12826;SDS011;66927;48.812;9.118;2023-03-16T15:32:52;2.70;;;2.13;;
12826;SDS011;66927;48.812;9.118;2023-03-16T15:35:18;2.20;;;2.00;;
12826;SDS011;66927;48.812;9.118;2023-03-16T15:37:47;2.53;;;1.90;;
12826;SDS011;66927;48.812;9.118;2023-03-16T15:40:23;2.90;;;2.00;;
12826;SDS011;66927;48.812;9.118;2023-03-16T15:42:52;3.43;;;2.07;;
12826;SDS011;66927;48.812;9.118;2023-03-16T15:45:19;2.50;;;2.20;;
12826;SDS011;66927;48.812;9.118;2023-03-16T15:47:46;11.70;;;3.27;;
12826;SDS011;66927;48.812;9.118;2023-03-16T15:50:14;3.43;;;2.80;;
12826;SDS011;66927;48.812;9.118;2023-03-16T15:52:42;3.10;;;2.80;;
12826;SDS011;66927;48.812;9.118;2023-03-16T15:55:22;3.07;;;2.60;;
12826;SDS011;66927;48.812;9.118;2023-03-16T15:57:56;2.97;;;2.57;;
12826;SDS011;66927;48.812;9.118;2023-03-16T16:02:59;3.07;;;2.07;;
12826;SDS011;66927;48.812;9.118;2023-03-16T16:05:26;2.43;;;1.63;;
12826;SDS011;66927;48.812;9.118;2023-03-16T16:07:52;2.10;;;1.87;;
12826;SDS011;66927;48.812;9.118;2023-03-16T16:10:19;2.40;;;1.83;;
12826;SDS011;66927;48.812;9.118;2023-03-16T16:12:45;2.40;;;1.83;;
12826;SDS011;66927;48.812;9.118;2023-03-16T16:15:19;2.30;;;1.80;;
12826;SDS011;66927;48.812;9.118;2023-03-16T16:17:49;2.80;;;2.00;;
12826;SDS011;66927;48.812;9.118;2023-03-16T16:20:17;3.63;;;2.03;;
12826;SDS011;66927;48.812;9.118;2023-03-16T16:22:45;2.30;;;1.77;;
12826;SDS011;66927;48.812;9.118;2023-03-16T16:25:11;2.10;;;1.70;;